Terminal Aerodrome Forecast
Issued by NWS Goodland, KS

Home | Current Version | Previous Version | Text Only | Print | Product List | Glossary On
Versions: 1 2 3 4 5 6 7 8 9 10 11 12 13
562
FTUS43 KGLD 280539
TAFGLD
TAF
KGLD 280539Z 2806/0106 25015G25KT P6SM FEW250
     FM281100 33010KT P6SM SCT120
     FM281800 36013G25KT P6SM BKN080
     FM010000 01016G27KT P6SM BKN080 PROB30 0100/0106 -RASN SCT040
      BKN080=

USA.gov is the U.S. government's official web portal to all federal, state and local government web resources and services.